Terminal Aerodrome Forecast
Issued by NWS Omaha/Valley, NE

Home | Current Version | Previous Version | Text Only | Print | Product List | Glossary Off
Versions: 1 2 3 4 5 6 7 8 9 10 11 12 13 14

881
FTUS43 KOAX 192320
TAFOFK
TAF
KOFK 192320Z 2000/2024 04005KT P6SM OVC100
     FM200100 03004KT P6SM -RA OVC050
     FM200600 01004KT 4SM -RA OVC025
     FM201100 36004KT 4SM -RA BR OVC007
     FM201500 02006KT P6SM OVC015
     FM201800 02006KT P6SM OVC050=

USA.gov is the U.S. government's official web portal to all federal, state and local government web resources and services.